Terminal Aerodrome Forecast
Issued by NWS Wilmington, OH

Current Version | Previous Version | Text Only | Print | Product List | Glossary Off
Versions: 1 2 3 4 5 6 7 8 9 10 11 12 13 14 15 16 17 18 19

000
FTUS41 KILN 282300
TAFCMH
TAF
KCMH 282332Z 2900/2924 10004KT P6SM SCT040
     FM291200 16007KT P6SM VCSH SCT050 BKN080
     FM291500 17009KT P6SM BKN050
     FM291800 19010G18KT P6SM SCT050
     FM292100 19012G20KT P6SM VCTS BKN050CB=

USA.gov is the U.S. government's official web portal to all federal, state and local government web resources and services.